Time;durP1;ratioP1;P1;durP2;ratioP2;P2;SDS_P1;SDS_P2;PMS_P1;PMS_P2;Temp;Humidity;BMP_temperature;BMP_pressure;BME280_temperature;BME280_humidity;BME280_pressure;Samples;Min_cycle;Max_cycle;Signal;HPM_P1;HPM_P2
2021/06/02 00:01:24;;;;;;;5.03;2.13;;;;;;;;;;5108775;28;20426;-80
2021/06/02 00:03:51;;;;;;;4.57;1.90;;;;;;;;;;5108966;28;20702;-80
2021/06/02 00:06:18;;;;;;;4.30;1.95;;;;;;;;;;5108863;28;20363;-79
2021/06/02 00:08:44;;;;;;;3.53;2.20;;;;;;;;;;5100744;28;20381;-81
2021/06/02 00:11:10;;;;;;;4.05;2.08;;;;;;;;;;5108405;28;20370;-81
2021/06/02 00:13:36;;;;;;;4.70;2.30;;;;;;;;;;5094477;28;20777;-79
2021/06/02 00:16:02;;;;;;;7.03;2.20;;;;;;;;;;5112982;28;20461;-82
2021/06/02 00:18:28;;;;;;;5.13;2.28;;;;;;;;;;5094564;28;20446;-78
2021/06/02 00:20:55;;;;;;;5.55;2.08;;;;;;;;;;5112763;28;20410;-79
2021/06/02 00:23:21;;;;;;;4.67;2.27;;;;;;;;;;5112583;28;20454;-80
2021/06/02 00:25:48;;;;;;;4.53;2.40;;;;;;;;;;5112868;28;20736;-82
2021/06/02 00:28:16;;;;;;;3.85;2.05;;;;;;;;;;5094316;28;20881;-81
2021/06/02 00:30:42;;;;;;;3.67;2.15;;;;;;;;;;5112999;28;20371;-78
2021/06/02 00:33:08;;;;;;;3.67;2.03;;;;;;;;;;5112372;28;20845;-81
2021/06/02 00:35:35;;;;;;;4.78;2.53;;;;;;;;;;5094036;28;20457;-80
2021/06/02 00:38:01;;;;;;;3.38;2.30;;;;;;;;;;5112451;28;20416;-81
2021/06/02 00:40:50;;;;;;;4.65;2.40;;;;;;;;;;5112728;28;20370;-79
2021/06/02 00:43:18;;;;;;;3.63;2.20;;;;;;;;;;5099352;28;20421;-79
2021/06/02 00:45:45;;;;;;;5.18;2.17;;;;;;;;;;5094331;28;20370;-81
2021/06/02 00:48:15;;;;;;;5.50;2.60;;;;;;;;;;5112262;28;20375;-82
2021/06/02 00:50:49;;;;;;;5.35;2.45;;;;;;;;;;5112392;28;20874;-81
2021/06/02 00:53:15;;;;;;;5.15;2.20;;;;;;;;;;5112317;28;20371;-79
2021/06/02 00:55:42;;;;;;;4.80;2.35;;;;;;;;;;5112249;28;20374;-80
2021/06/02 00:58:09;;;;;;;3.33;2.23;;;;;;;;;;5112153;28;20374;-79
2021/06/02 01:00:36;;;;;;;3.08;2.20;;;;;;;;;;5093674;28;20409;-79
2021/06/02 01:03:03;;;;;;;3.70;2.42;;;;;;;;;;5111808;28;20840;-80
2021/06/02 01:05:29;;;;;;;4.70;2.78;;;;;;;;;;5111915;28;20379;-81
2021/06/02 01:08:00;;;;;;;3.80;2.35;;;;;;;;;;5111956;28;20354;-80
2021/06/02 01:10:27;;;;;;;3.50;2.47;;;;;;;;;;5112128;28;20836;-79
2021/06/02 01:12:53;;;;;;;4.43;2.80;;;;;;;;;;5111534;28;20359;-77
2021/06/02 01:15:20;;;;;;;3.85;2.75;;;;;;;;;;5093615;28;20718;-82
2021/06/02 01:17:46;;;;;;;3.43;2.50;;;;;;;;;;5111689;28;20382;-80
2021/06/02 01:20:12;;;;;;;4.53;2.40;;;;;;;;;;5111613;28;20374;-79
2021/06/02 01:22:40;;;;;;;4.90;2.60;;;;;;;;;;5111347;28;20398;-82
2021/06/02 01:25:16;;;;;;;5.35;2.97;;;;;;;;;;5110678;28;20920;-80
2021/06/02 01:27:42;;;;;;;4.47;3.03;;;;;;;;;;5111364;28;20367;-79
2021/06/02 01:30:10;;;;;;;4.25;2.90;;;;;;;;;;5111493;28;20371;-80
2021/06/02 01:32:55;;;;;;;4.20;2.70;;;;;;;;;;5092996;28;20378;-81
2021/06/02 01:35:36;;;;;;;5.03;2.95;;;;;;;;;;5111644;28;20416;-81
2021/06/02 01:38:16;;;;;;;4.05;3.15;;;;;;;;;;5111340;28;20370;-78
2021/06/02 01:40:42;;;;;;;5.72;3.28;;;;;;;;;;5111142;28;20456;-78
2021/06/02 01:43:27;;;;;;;5.03;3.25;;;;;;;;;;5111074;28;20410;-80
2021/06/02 01:46:10;;;;;;;5.60;3.50;;;;;;;;;;5092721;28;20379;-81
2021/06/02 01:48:43;;;;;;;5.55;3.50;;;;;;;;;;5111212;28;21072;-80
2021/06/02 01:51:22;;;;;;;6.75;4.13;;;;;;;;;;5111059;28;20374;-80
2021/06/02 01:53:50;;;;;;;6.13;4.00;;;;;;;;;;5111085;28;20371;-79
2021/06/02 01:56:25;;;;;;;6.95;4.03;;;;;;;;;;5111161;28;20362;-78
2021/06/02 01:58:51;;;;;;;7.45;4.10;;;;;;;;;;5110998;28;20941;-80
2021/06/02 02:01:20;;;;;;;5.82;3.92;;;;;;;;;;5110683;28;20438;-82
2021/06/02 02:04:04;;;;;;;7.33;4.40;;;;;;;;;;5110746;28;20396;-81
2021/06/02 02:06:33;;;;;;;7.43;4.35;;;;;;;;;;5111065;28;20386;-79
2021/06/02 02:09:04;;;;;;;6.15;4.15;;;;;;;;;;5110556;28;20454;-80
2021/06/02 02:11:35;;;;;;;10.70;4.80;;;;;;;;;;5092462;28;20398;-79
2021/06/02 02:14:06;;;;;;;7.40;4.70;;;;;;;;;;5110720;28;20365;-78
2021/06/02 02:16:33;;;;;;;7.10;4.53;;;;;;;;;;5092338;28;20370;-79
2021/06/02 02:18:59;;;;;;;7.20;4.80;;;;;;;;;;5110636;28;20367;-81
2021/06/02 02:21:43;;;;;;;9.30;5.40;;;;;;;;;;5110642;28;20843;-81
2021/06/02 02:24:12;;;;;;;7.07;4.90;;;;;;;;;;5110312;28;20362;-78
2021/06/02 02:26:52;;;;;;;9.13;5.90;;;;;;;;;;5110355;28;20431;-78
2021/06/02 02:29:30;;;;;;;8.60;5.55;;;;;;;;;;5110447;28;20811;-79
2021/06/02 02:32:02;;;;;;;9.57;5.93;;;;;;;;;;5110563;28;20363;-79
2021/06/02 02:34:45;;;;;;;9.15;5.78;;;;;;;;;;5091811;28;20881;-79
2021/06/02 02:37:17;;;;;;;9.25;6.00;;;;;;;;;;5110251;28;20362;-78
2021/06/02 02:40:01;;;;;;;9.70;5.95;;;;;;;;;;5110342;28;20363;-79
2021/06/02 02:42:27;;;;;;;8.63;5.70;;;;;;;;;;5110086;28;20410;-80
2021/06/02 02:45:23;;;;;;;9.60;6.22;;;;;;;;;;5091800;28;20379;-81
2021/06/02 02:48:15;;;;;;;27.30;7.28;;;;;;;;;;5088376;28;20371;-79
2021/06/02 02:50:52;;;;;;;9.38;6.68;;;;;;;;;;5097735;28;20386;-79
2021/06/02 02:53:29;;;;;;;9.60;5.88;;;;;;;;;;5109974;28;20366;-81
2021/06/02 02:55:58;;;;;;;9.85;6.90;;;;;;;;;;5110050;28;20374;-81
2021/06/02 02:58:24;;;;;;;12.10;6.75;;;;;;;;;;5091585;28;20371;-82
2021/06/02 03:01:07;;;;;;;11.32;7.38;;;;;;;;;;5091554;28;20385;-81
2021/06/02 03:03:51;;;;;;;9.93;6.68;;;;;;;;;;5109719;28;20410;-78
2021/06/02 03:06:23;;;;;;;12.40;7.60;;;;;;;;;;5110070;28;20387;-78
2021/06/02 03:09:01;;;;;;;10.05;6.90;;;;;;;;;;5109518;28;20569;-81
2021/06/02 03:11:37;;;;;;;11.65;7.38;;;;;;;;;;5109412;28;20857;-81
2021/06/02 03:14:15;;;;;;;13.85;8.02;;;;;;;;;;5091191;28;20371;-80
2021/06/02 03:16:43;;;;;;;12.90;7.95;;;;;;;;;;5109528;28;20379;-81
2021/06/02 03:19:20;;;;;;;11.93;8.10;;;;;;;;;;5109267;28;20383;-81
2021/06/02 03:21:56;;;;;;;11.48;7.32;;;;;;;;;;5109332;28;20430;-79
2021/06/02 03:24:22;;;;;;;14.07;8.38;;;;;;;;;;5091096;28;20420;-81
2021/06/02 03:27:10;;;;;;;11.60;7.88;;;;;;;;;;5109035;28;20362;-79
2021/06/02 03:29:52;;;;;;;12.27;8.18;;;;;;;;;;5087998;28;20374;-79
2021/06/02 03:32:35;;;;;;;12.63;8.10;;;;;;;;;;5109470;28;20391;-81
2021/06/02 03:35:09;;;;;;;42.33;10.98;;;;;;;;;;5099964;28;20739;-78
2021/06/02 03:37:46;;;;;;;13.43;8.23;;;;;;;;;;5109490;28;20957;-79
2021/06/02 03:40:18;;;;;;;12.20;8.37;;;;;;;;;;5109132;28;20402;-81
2021/06/02 03:42:53;;;;;;;11.60;8.23;;;;;;;;;;5082495;28;20705;-81
2021/06/02 03:45:19;;;;;;;11.63;8.30;;;;;;;;;;5109078;28;20366;-80
2021/06/02 03:47:51;;;;;;;12.02;8.57;;;;;;;;;;5108458;28;20945;-78
2021/06/02 03:50:18;;;;;;;13.17;8.90;;;;;;;;;;5109307;28;20436;-81
2021/06/02 03:53:03;;;;;;;13.68;8.90;;;;;;;;;;5109073;28;20895;-80
2021/06/02 03:55:29;;;;;;;14.27;9.32;;;;;;;;;;5109178;28;20370;-80
2021/06/02 03:58:15;;;;;;;12.80;9.23;;;;;;;;;;5090396;28;20387;-79
2021/06/02 04:01:04;;;;;;;13.35;9.63;;;;;;;;;;5109015;28;20431;-81
2021/06/02 04:03:46;;;;;;;16.52;9.30;;;;;;;;;;5090540;28;20386;-79
2021/06/02 04:06:24;;;;;;;11.95;9.18;;;;;;;;;;5109150;28;20781;-78
2021/06/02 04:09:04;;;;;;;15.55;9.73;;;;;;;;;;5108978;28;20371;-81
2021/06/02 04:11:45;;;;;;;29.25;11.05;;;;;;;;;;5109109;28;20363;-81
2021/06/02 04:14:15;;;;;;;18.10;9.85;;;;;;;;;;5108980;28;20363;-81
2021/06/02 04:16:42;;;;;;;14.05;8.98;;;;;;;;;;5109040;28;20363;-78
2021/06/02 04:19:10;;;;;;;12.95;9.10;;;;;;;;;;5108926;28;20375;-78
2021/06/02 04:21:38;;;;;;;18.65;9.57;;;;;;;;;;5108963;28;20402;-78
2021/06/02 04:24:07;;;;;;;26.70;10.27;;;;;;;;;;5108933;28;20378;-81
2021/06/02 04:26:34;;;;;;;15.55;8.88;;;;;;;;;;5090812;28;20371;-81
2021/06/02 04:29:01;;;;;;;16.20;8.07;;;;;;;;;;5108735;28;20462;-78
2021/06/02 04:31:28;;;;;;;13.03;8.67;;;;;;;;;;5108712;28;20371;-77
2021/06/02 04:33:56;;;;;;;13.48;8.48;;;;;;;;;;5108857;28;20729;-79
2021/06/02 04:36:23;;;;;;;12.02;7.88;;;;;;;;;;5109325;28;21159;-79
2021/06/02 04:38:49;;;;;;;13.13;8.60;;;;;;;;;;5109144;28;20833;-79
2021/06/02 04:41:15;;;;;;;11.90;8.32;;;;;;;;;;5108553;28;20406;-79
2021/06/02 04:43:41;;;;;;;12.80;8.35;;;;;;;;;;5109436;28;20720;-78
2021/06/02 04:46:08;;;;;;;12.82;8.02;;;;;;;;;;5108432;28;20435;-82
2021/06/02 04:48:34;;;;;;;12.38;8.23;;;;;;;;;;5104273;28;20410;-79
2021/06/02 04:51:09;;;;;;;12.63;8.13;;;;;;;;;;5103096;28;20430;-81
2021/06/02 04:54:04;;;;;;;12.70;8.82;;;;;;;;;;5088240;28;20412;-80
2021/06/02 04:56:31;;;;;;;13.70;8.73;;;;;;;;;;5082872;28;20387;-82
2021/06/02 04:59:06;;;;;;;14.48;8.35;;;;;;;;;;5091698;28;20390;-84
2021/06/02 05:01:41;;;;;;;11.88;7.95;;;;;;;;;;5082453;28;20894;-81
2021/06/02 05:04:26;;;;;;;11.80;8.05;;;;;;;;;;5098108;28;20706;-84
2021/06/02 05:07:11;;;;;;;13.40;8.30;;;;;;;;;;5109932;28;20582;-84
2021/06/02 05:09:55;;;;;;;11.43;8.07;;;;;;;;;;5109763;28;20443;-81
2021/06/02 05:12:40;;;;;;;12.55;8.25;;;;;;;;;;5110207;28;20367;-85
2021/06/02 05:15:42;;;;;;;10.02;7.57;;;;;;;;;;5092250;28;20387;-82
2021/06/02 05:18:12;;;;;;;12.10;7.78;;;;;;;;;;5028536;28;20472;-83
2021/06/02 05:23:48;;;;;;;12.70;6.43;;;;;;;;;;5108922;27;20414;-83
2021/06/02 05:26:14;;;;;;;11.25;6.72;;;;;;;;;;5090819;28;20424;-84
2021/06/02 05:28:49;;;;;;;7.85;6.40;;;;;;;;;;5112417;28;20478;-87
2021/06/02 05:31:34;;;;;;;10.85;6.72;;;;;;;;;;5108532;28;20375;-83
2021/06/02 05:34:19;;;;;;;9.00;6.07;;;;;;;;;;5090827;28;20431;-83
2021/06/02 05:36:45;;;;;;;8.63;6.18;;;;;;;;;;5109791;28;20919;-82
2021/06/02 05:39:14;;;;;;;8.88;6.10;;;;;;;;;;5092252;28;20371;-80
2021/06/02 05:41:53;;;;;;;11.15;6.05;;;;;;;;;;5110895;28;20387;-83
2021/06/02 05:44:25;;;;;;;11.07;6.50;;;;;;;;;;5090233;28;20378;-86
2021/06/02 05:47:06;;;;;;;10.27;6.93;;;;;;;;;;5110628;28;20482;-82
2021/06/02 05:49:49;;;;;;;11.23;6.72;;;;;;;;;;5110559;28;20370;-83
2021/06/02 05:52:39;;;;;;;11.57;6.28;;;;;;;;;;5090154;28;20722;-86
2021/06/02 05:55:11;;;;;;;9.53;6.20;;;;;;;;;;5109739;28;20853;-82
2021/06/02 05:57:57;;;;;;;8.32;6.30;;;;;;;;;;5108486;28;20458;-84
2021/06/02 06:00:46;;;;;;;8.88;6.07;;;;;;;;;;5091031;28;20461;-82
2021/06/02 06:03:24;;;;;;;8.80;5.82;;;;;;;;;;5080786;28;20791;-85
2021/06/02 06:05:59;;;;;;;8.07;5.68;;;;;;;;;;5091928;28;20377;-87
2021/06/02 06:08:39;;;;;;;12.32;6.65;;;;;;;;;;5110291;28;20465;-81
2021/06/02 06:11:26;;;;;;;6.13;5.13;;;;;;;;;;5090196;28;20382;-81
2021/06/02 06:14:05;;;;;;;9.90;5.63;;;;;;;;;;5102524;28;20392;-80
2021/06/02 06:16:49;;;;;;;8.25;4.90;;;;;;;;;;5109907;28;20754;-83
2021/06/02 06:19:15;;;;;;;10.13;4.90;;;;;;;;;;5088811;28;20386;-82
2021/06/02 06:21:56;;;;;;;9.38;5.22;;;;;;;;;;5109655;28;20807;-83
2021/06/02 06:24:28;;;;;;;8.10;5.15;;;;;;;;;;5089783;28;20428;-79
2021/06/02 06:26:59;;;;;;;8.48;5.20;;;;;;;;;;5107105;28;20378;-81
2021/06/02 06:29:25;;;;;;;8.10;5.40;;;;;;;;;;5110239;28;20452;-78
2021/06/02 06:31:53;;;;;;;10.27;5.17;;;;;;;;;;5109670;28;20366;-81
2021/06/02 06:34:25;;;;;;;9.13;4.80;;;;;;;;;;5109601;28;20386;-78
2021/06/02 06:36:54;;;;;;;9.30;5.47;;;;;;;;;;5109583;28;20366;-82
2021/06/02 06:39:20;;;;;;;21.25;6.53;;;;;;;;;;5091354;28;20379;-82
2021/06/02 06:41:48;;;;;;;8.60;5.33;;;;;;;;;;5091125;28;20710;-81
2021/06/02 06:44:14;;;;;;;7.70;4.67;;;;;;;;;;5106947;28;20429;-81
2021/06/02 06:46:41;;;;;;;9.15;5.13;;;;;;;;;;5109261;28;20355;-80
2021/06/02 06:49:10;;;;;;;26.27;5.95;;;;;;;;;;5109339;28;20457;-83
2021/06/02 06:51:36;;;;;;;6.55;4.88;;;;;;;;;;5088383;28;20371;-82
2021/06/02 06:54:03;;;;;;;7.65;5.35;;;;;;;;;;5109252;28;20370;-82
2021/06/02 06:56:30;;;;;;;9.13;5.10;;;;;;;;;;5109334;28;20841;-81
2021/06/02 06:58:56;;;;;;;9.63;5.10;;;;;;;;;;5106702;28;20367;-80
2021/06/02 07:01:22;;;;;;;6.45;5.25;;;;;;;;;;5107794;28;20402;-79
2021/06/02 07:03:48;;;;;;;9.60;4.65;;;;;;;;;;5109308;28;20775;-79
2021/06/02 07:06:16;;;;;;;8.75;4.90;;;;;;;;;;5106343;28;20379;-81
2021/06/02 07:08:43;;;;;;;9.40;4.90;;;;;;;;;;5109066;28;20402;-78
2021/06/02 07:11:09;;;;;;;31.35;6.53;;;;;;;;;;5109152;28;20598;-82
2021/06/02 07:13:36;;;;;;;14.95;5.18;;;;;;;;;;5105269;27;20421;-81
2021/06/02 07:16:03;;;;;;;8.73;4.90;;;;;;;;;;5107131;27;20424;-84
2021/06/02 07:18:31;;;;;;;13.80;5.15;;;;;;;;;;5107418;28;20859;-81
2021/06/02 07:20:58;;;;;;;8.68;5.00;;;;;;;;;;5105328;28;20375;-83
2021/06/02 07:23:24;;;;;;;7.35;4.40;;;;;;;;;;5089424;28;20383;-79
2021/06/02 07:25:51;;;;;;;9.68;4.90;;;;;;;;;;5108169;28;20462;-83
2021/06/02 07:28:21;;;;;;;8.07;5.38;;;;;;;;;;5107472;28;20370;-81
2021/06/02 07:30:48;;;;;;;7.63;4.78;;;;;;;;;;5089863;28;20379;-84
2021/06/02 07:33:14;;;;;;;7.97;4.93;;;;;;;;;;5108745;28;20449;-85
2021/06/02 07:35:40;;;;;;;47.97;7.70;;;;;;;;;;5090818;28;20478;-82
2021/06/02 07:38:08;;;;;;;9.73;4.70;;;;;;;;;;5108701;28;20367;-84
2021/06/02 07:40:34;;;;;;;11.05;4.68;;;;;;;;;;5106140;28;20369;-85
2021/06/02 07:43:00;;;;;;;7.50;4.60;;;;;;;;;;5108974;28;20489;-84
2021/06/02 07:45:26;;;;;;;6.20;4.57;;;;;;;;;;5090525;28;20379;-88
2021/06/02 07:47:52;;;;;;;7.72;4.53;;;;;;;;;;5109206;28;20373;-79
2021/06/02 07:50:18;;;;;;;8.90;5.07;;;;;;;;;;5108575;28;20848;-85
2021/06/02 07:52:44;;;;;;;9.98;4.50;;;;;;;;;;5093635;28;20371;-85
2021/06/02 07:55:10;;;;;;;9.53;4.90;;;;;;;;;;5092427;28;20386;-86
2021/06/02 07:57:36;;;;;;;7.53;4.85;;;;;;;;;;5111146;28;20359;-87
2021/06/02 08:00:04;;;;;;;7.13;4.40;;;;;;;;;;5111871;28;20421;-80
2021/06/02 08:02:30;;;;;;;7.03;4.65;;;;;;;;;;5111810;28;20395;-82
2021/06/02 08:04:56;;;;;;;5.97;4.37;;;;;;;;;;5112874;28;20369;-84
2021/06/02 08:07:23;;;;;;;8.43;5.40;;;;;;;;;;5094344;28;20375;-83
2021/06/02 08:09:50;;;;;;;8.07;4.75;;;;;;;;;;5092341;28;20472;-83
2021/06/02 08:12:17;;;;;;;8.48;5.15;;;;;;;;;;5104500;28;20382;-86
2021/06/02 08:14:43;;;;;;;127.55;16.50;;;;;;;;;;5090368;28;20402;-87
2021/06/02 08:17:09;;;;;;;7.57;5.00;;;;;;;;;;5090111;28;21284;-83
2021/06/02 08:19:37;;;;;;;11.33;5.30;;;;;;;;;;5085027;28;20440;-81
2021/06/02 08:22:05;;;;;;;7.47;5.05;;;;;;;;;;5089645;28;20429;-79
2021/06/02 08:24:37;;;;;;;6.53;4.60;;;;;;;;;;5091275;28;20477;-85
2021/06/02 08:27:03;;;;;;;11.77;5.40;;;;;;;;;;5108607;28;20375;-88
2021/06/02 08:29:38;;;;;;;9.98;5.40;;;;;;;;;;5109601;28;20366;-81
2021/06/02 08:32:07;;;;;;;6.43;4.70;;;;;;;;;;5107160;28;20417;-84
2021/06/02 08:34:36;;;;;;;7.50;4.80;;;;;;;;;;5096132;28;20473;-87
2021/06/02 08:37:02;;;;;;;5.90;5.17;;;;;;;;;;5096021;28;20959;-80
2021/06/02 08:39:29;;;;;;;13.68;4.95;;;;;;;;;;5096925;28;20390;-83
2021/06/02 08:41:56;;;;;;;6.57;5.28;;;;;;;;;;5113907;28;21144;-84
2021/06/02 08:44:22;;;;;;;5.70;4.70;;;;;;;;;;5096572;28;20379;-84
2021/06/02 08:46:49;;;;;;;8.32;5.18;;;;;;;;;;5095931;28;20386;-88
2021/06/02 08:49:15;;;;;;;6.80;4.97;;;;;;;;;;5095879;28;20749;-83
2021/06/02 08:51:42;;;;;;;6.65;5.13;;;;;;;;;;5116524;28;20462;-85
2021/06/02 08:54:20;;;;;;;21.90;6.00;;;;;;;;;;5114164;28;20371;-85
2021/06/02 08:56:48;;;;;;;10.05;5.07;;;;;;;;;;5093782;27;20736;-87
2021/06/02 08:59:16;;;;;;;25.35;6.45;;;;;;;;;;5096726;28;20386;-82
2021/06/02 09:01:42;;;;;;;7.57;4.97;;;;;;;;;;5091722;28;20910;-83
2021/06/02 09:04:09;;;;;;;5.88;4.80;;;;;;;;;;5113793;27;20909;-83
2021/06/02 09:06:42;;;;;;;6.87;5.17;;;;;;;;;;5115376;28;21056;-82
2021/06/02 09:09:10;;;;;;;8.30;4.63;;;;;;;;;;5097256;28;20401;-85
2021/06/02 09:11:46;;;;;;;8.43;5.60;;;;;;;;;;5112319;28;20388;-81
2021/06/02 09:14:21;;;;;;;7.18;5.00;;;;;;;;;;5115797;28;20443;-86
2021/06/02 09:16:55;;;;;;;32.97;6.80;;;;;;;;;;5115029;28;20432;-85
2021/06/02 09:19:31;;;;;;;14.35;5.32;;;;;;;;;;5113107;28;20913;-83
2021/06/02 09:22:01;;;;;;;7.32;4.70;;;;;;;;;;5093209;28;20410;-85
2021/06/02 09:24:46;;;;;;;7.13;5.05;;;;;;;;;;5112486;28;20378;-84
2021/06/02 09:27:12;;;;;;;7.65;5.22;;;;;;;;;;5115773;27;21162;-86
2021/06/02 09:29:52;;;;;;;6.63;4.45;;;;;;;;;;5115032;28;20528;-83
2021/06/02 09:32:22;;;;;;;22.35;6.28;;;;;;;;;;5107998;28;20374;-86
2021/06/02 09:34:49;;;;;;;41.58;7.70;;;;;;;;;;5113712;28;20474;-85
2021/06/02 09:37:15;;;;;;;9.63;4.90;;;;;;;;;;5113951;28;20721;-85
2021/06/02 09:39:43;;;;;;;10.32;5.00;;;;;;;;;;5113296;28;20367;-86
2021/06/02 09:42:36;;;;;;;6.15;4.72;;;;;;;;;;5093581;28;20489;-82
2021/06/02 09:45:22;;;;;;;9.45;5.13;;;;;;;;;;5105995;28;20950;-83
2021/06/02 09:47:52;;;;;;;7.35;4.82;;;;;;;;;;5111240;28;20371;-82
2021/06/02 09:50:26;;;;;;;6.80;4.63;;;;;;;;;;5108893;27;20377;-81
2021/06/02 09:52:53;;;;;;;5.82;4.85;;;;;;;;;;5107553;27;20367;-82
2021/06/02 09:56:05;;;;;;;8.70;5.20;;;;;;;;;;5092240;28;20402;-81
2021/06/02 09:58:31;;;;;;;9.65;5.10;;;;;;;;;;5111308;28;20390;-86
2021/06/02 10:01:06;;;;;;;7.68;5.03;;;;;;;;;;5106408;27;20378;-83
2021/06/02 10:03:34;;;;;;;9.65;5.40;;;;;;;;;;5091096;28;20409;-80
2021/06/02 10:06:01;;;;;;;8.95;4.82;;;;;;;;;;5091517;28;20431;-83
2021/06/02 10:08:27;;;;;;;6.88;5.15;;;;;;;;;;5110125;28;20709;-80
2021/06/02 10:10:54;;;;;;;6.93;5.13;;;;;;;;;;5091063;28;20485;-81
2021/06/02 10:13:24;;;;;;;11.35;5.35;;;;;;;;;;5109691;28;20690;-81
2021/06/02 10:15:50;;;;;;;8.13;4.70;;;;;;;;;;5109876;28;20452;-81
2021/06/02 10:18:25;;;;;;;6.78;4.78;;;;;;;;;;5104529;27;20383;-84
2021/06/02 10:21:02;;;;;;;8.73;5.00;;;;;;;;;;5109695;28;20402;-84
2021/06/02 10:23:30;;;;;;;7.95;4.35;;;;;;;;;;5106134;28;20469;-83
2021/06/02 10:25:57;;;;;;;10.68;5.03;;;;;;;;;;5091530;28;20386;-79
2021/06/02 10:28:24;;;;;;;12.73;5.00;;;;;;;;;;5113187;28;20924;-80
2021/06/02 10:30:50;;;;;;;51.78;8.43;;;;;;;;;;5090606;28;20416;-81
2021/06/02 10:33:19;;;;;;;6.82;5.00;;;;;;;;;;5087196;28;20894;-78
2021/06/02 10:35:45;;;;;;;7.35;4.53;;;;;;;;;;5088550;28;20383;-82
2021/06/02 10:38:12;;;;;;;8.50;4.25;;;;;;;;;;5106861;27;20375;-79
2021/06/02 10:40:39;;;;;;;6.15;4.40;;;;;;;;;;5108917;28;20489;-87
2021/06/02 10:43:08;;;;;;;5.45;4.03;;;;;;;;;;5089169;28;20405;-84
2021/06/02 10:45:35;;;;;;;7.50;4.75;;;;;;;;;;5109979;28;20366;-84
2021/06/02 10:48:03;;;;;;;8.07;4.22;;;;;;;;;;5113115;28;20363;-84
2021/06/02 10:50:31;;;;;;;7.45;4.72;;;;;;;;;;5096584;28;20426;-85
2021/06/02 10:52:57;;;;;;;7.63;4.60;;;;;;;;;;5109088;28;20370;-88
2021/06/02 10:55:33;;;;;;;6.00;5.00;;;;;;;;;;5110412;28;20362;-85
2021/06/02 10:58:15;;;;;;;8.75;4.63;;;;;;;;;;5108162;28;20363;-84
2021/06/02 11:00:41;;;;;;;9.25;4.20;;;;;;;;;;5108009;28;20370;-82
2021/06/02 11:03:28;;;;;;;5.30;4.30;;;;;;;;;;5110723;28;20399;-81
2021/06/02 11:06:13;;;;;;;9.45;4.63;;;;;;;;;;5095240;28;20432;-79
2021/06/02 11:08:59;;;;;;;6.47;4.22;;;;;;;;;;5107412;28;20374;-88
2021/06/02 11:11:29;;;;;;;6.72;4.20;;;;;;;;;;5089507;28;20375;-83
2021/06/02 11:14:17;;;;;;;8.07;4.50;;;;;;;;;;5109156;28;20403;-88
2021/06/02 11:16:44;;;;;;;7.23;4.60;;;;;;;;;;5107713;28;20414;-81
2021/06/02 11:19:30;;;;;;;6.47;5.00;;;;;;;;;;5092837;28;20446;-79
2021/06/02 11:21:56;;;;;;;6.57;4.35;;;;;;;;;;5109278;28;20916;-82
2021/06/02 11:24:35;;;;;;;20.23;5.95;;;;;;;;;;5110702;28;20409;-87
2021/06/02 11:27:10;;;;;;;16.98;5.55;;;;;;;;;;5107324;28;20370;-83
2021/06/02 11:29:58;;;;;;;10.15;5.00;;;;;;;;;;5094030;28;20725;-85
2021/06/02 11:32:25;;;;;;;7.43;4.25;;;25.80;87.60;;;;;;5079230;28;20385;-78
2021/06/02 11:35:06;;;;;;;9.02;4.18;;;25.60;88.70;;;;;;5109301;28;20382;-88
2021/06/02 11:37:34;;;;;;;27.97;6.37;;;25.50;85.60;;;;;;5090329;28;20382;-79
2021/06/02 11:40:03;;;;;;;7.78;4.50;;;25.50;86.50;;;;;;5109466;28;20417;-84
2021/06/02 11:42:29;;;;;;;5.15;4.03;;;25.70;86.70;;;;;;5104122;28;20469;-79
2021/06/02 11:45:00;;;;;;;5.63;4.03;;;25.70;86.70;;;;;;5104224;28;20432;-79
2021/06/02 11:47:26;;;;;;;4.97;4.10;;;25.90;86.00;;;;;;5090067;28;20389;-80
2021/06/02 11:50:05;;;;;;;8.40;4.32;;;26.10;82.60;;;;;;5108778;28;20379;-81
2021/06/02 11:52:31;;;;;;;9.80;4.57;;;26.30;82.60;;;;;;5108414;28;20386;-85
2021/06/02 11:55:04;;;;;;;61.35;9.55;;;26.50;87.40;;;;;;5105315;28;20728;-81
2021/06/02 11:57:31;;;;;;;4.90;4.40;;;26.50;82.60;;;;;;5108364;28;20377;-79
2021/06/02 12:00:01;;;;;;;7.10;4.40;;;26.20;82.00;;;;;;5105738;28;20460;-83
2021/06/02 12:02:27;;;;;;;19.27;4.88;;;25.90;83.00;;;;;;5090246;28;20738;-80
2021/06/02 12:04:53;;;;;;;4.15;3.63;;;25.60;82.80;;;;;;5090038;28;20486;-78
2021/06/02 12:07:27;;;;;;;6.78;3.95;;;25.60;82.80;;;;;;5108698;28;20378;-80
2021/06/02 12:09:57;;;;;;;5.37;4.20;;;25.80;83.50;;;;;;5112320;28;20432;-79
2021/06/02 12:12:25;;;;;;;8.55;4.78;;;25.90;83.60;;;;;;5112473;28;20461;-81
2021/06/02 12:14:58;;;;;;;5.35;4.30;;;26.10;86.20;;;;;;5111524;28;20457;-80
2021/06/02 12:17:31;;;;;;;11.50;4.82;;;26.40;83.70;;;;;;5110488;28;20890;-78
2021/06/02 12:19:58;;;;;;;38.92;6.47;;;26.40;82.80;;;;;;5109511;28;20849;-78
2021/06/02 12:22:25;;;;;;;22.42;4.95;;;26.50;80.90;;;;;;5111594;28;20962;-79
2021/06/02 12:25:15;;;;;;;15.35;4.80;;;26.00;79.40;;;;;;5112330;28;20860;-79
2021/06/02 12:27:53;;;;;;;15.60;4.25;;;25.80;82.20;;;;;;5091381;28;20390;-81
2021/06/02 12:30:34;;;;;;;7.57;3.63;;;26.10;80.70;;;;;;5090872;28;20459;-77
2021/06/02 12:33:04;;;;;;;6.93;3.42;;;26.30;80.40;;;;;;5109648;28;20383;-78
2021/06/02 12:35:43;;;;;;;7.05;3.70;;;26.50;78.40;;;;;;5112112;28;20386;-79
2021/06/02 12:38:28;;;;;;;5.40;4.00;;;26.70;78.00;;;;;;5110245;28;20375;-80
2021/06/02 12:41:02;;;;;;;6.28;4.10;;;26.70;80.60;;;;;;5110788;28;20394;-78
2021/06/02 12:43:46;;;;;;;5.67;3.90;;;26.80;79.90;;;;;;5111771;28;20424;-83
2021/06/02 12:46:13;;;;;;;4.53;3.42;;;26.80;76.50;;;;;;5092781;28;20379;-83
2021/06/02 12:48:40;;;;;;;4.95;3.50;;;26.90;78.00;;;;;;5109616;28;20371;-82
2021/06/02 12:51:11;;;;;;;5.97;3.42;;;26.80;79.20;;;;;;5111987;28;20378;-80
2021/06/02 12:53:39;;;;;;;8.75;4.05;;;27.00;78.70;;;;;;5093483;28;20386;-78
2021/06/02 12:56:06;;;;;;;107.68;12.00;;;27.20;77.40;;;;;;5111410;28;20430;-82
2021/06/02 12:58:33;;;;;;;10.13;3.50;;;27.50;76.00;;;;;;5111767;28;21358;-82
2021/06/02 13:01:18;;;;;;;9.07;3.70;;;27.40;75.10;;;;;;5109355;28;20421;-81
2021/06/02 13:03:53;;;;;;;8.30;4.18;;;27.50;74.40;;;;;;5110137;28;20444;-80
2021/06/02 13:06:24;;;;;;;3.88;3.22;;;27.50;75.30;;;;;;5090471;28;20380;-81
2021/06/02 13:08:50;;;;;;;7.05;3.47;;;27.70;71.70;;;;;;5111586;28;20367;-80
2021/06/02 13:11:26;;;;;;;4.32;3.15;;;27.30;70.70;;;;;;5110832;28;20378;-81
2021/06/02 13:13:52;;;;;;;10.50;3.92;;;26.80;73.40;;;;;;5111590;28;20382;-78
2021/06/02 13:16:20;;;;;;;14.93;4.50;;;26.60;75.50;;;;;;5106809;28;20466;-86
2021/06/02 13:19:00;;;;;;;6.73;3.40;;;26.50;75.90;;;;;;5079515;28;20390;-82
2021/06/02 13:21:28;;;;;;;7.13;3.60;;;26.60;76.00;;;;;;5091202;28;20504;-84
2021/06/02 13:24:13;;;;;;;39.95;6.82;;;26.80;74.90;;;;;;5105212;28;20397;-84
2021/06/02 13:26:40;;;;;;;4.50;3.30;;;26.80;72.80;;;;;;5104802;28;20367;-83
2021/06/02 13:29:10;;;;;;;4.55;3.00;;;26.70;73.30;;;;;;5102993;28;20385;-82
2021/06/02 13:31:48;;;;;;;7.18;3.40;;;26.50;71.50;;;;;;5089291;28;20858;-82
2021/06/02 13:34:36;;;;;;;7.07;4.17;;;26.70;73.40;;;;;;5108001;28;20418;-86
2021/06/02 13:37:20;;;;;;;12.83;3.80;;;26.80;73.80;;;;;;5107490;28;20388;-86
2021/06/02 13:40:06;;;;;;;9.63;3.50;;;27.00;74.80;;;;;;5108607;28;20428;-79
2021/06/02 13:42:32;;;;;;;19.05;4.97;;;27.40;72.10;;;;;;5091202;28;20768;-82
2021/06/02 13:44:58;;;;;;;5.63;3.73;;;27.80;72.50;;;;;;5107163;28;20394;-85
2021/06/02 13:47:32;;;;;;;41.28;6.82;;;27.80;72.50;;;;;;5110499;28;20415;-82
2021/06/02 13:50:14;;;;;;;9.60;3.80;;;27.80;73.00;;;;;;5109444;28;20366;-79
2021/06/02 13:52:40;;;;;;;4.85;3.75;;;27.90;73.70;;;;;;5109379;28;20409;-82
2021/06/02 13:55:13;;;;;;;5.40;3.42;;;27.70;73.90;;;;;;5107359;28;20394;-83
2021/06/02 13:57:40;;;;;;;9.25;3.30;;;27.80;76.70;;;;;;5089809;28;20749;-83
2021/06/02 14:00:06;;;;;;;4.05;3.35;;;27.90;73.80;;;;;;5109724;28;20911;-84
2021/06/02 14:02:36;;;;;;;7.20;3.40;;;28.00;71.60;;;;;;5104203;28;20398;-85
2021/06/02 14:05:05;;;;;;;4.87;3.20;;;28.00;72.60;;;;;;5088961;28;20738;-81
2021/06/02 14:07:31;;;;;;;22.50;4.75;;;28.30;72.10;;;;;;5108652;27;20371;-81
2021/06/02 14:09:57;;;;;;;5.25;3.40;;;28.30;71.90;;;;;;5116621;27;20381;-84
2021/06/02 14:12:22;;;;;;;8.98;3.50;;;28.20;69.70;;;;;;5109127;28;20461;-88
2021/06/02 14:14:49;;;;;;;9.80;3.43;;;28.20;72.70;;;;;;5091221;28;20387;-84
2021/06/02 14:17:17;;;;;;;5.72;3.10;;;28.20;70.30;;;;;;5108527;28;20891;-83
2021/06/02 14:19:46;;;;;;;78.57;9.30;;;28.30;70.80;;;;;;5107583;28;20430;-85
2021/06/02 14:22:14;;;;;;;45.47;6.88;;;28.30;69.00;;;;;;5091794;28;20402;-85
2021/06/02 14:24:41;;;;;;;4.80;2.95;;;27.90;68.60;;;;;;5089408;28;20383;-83
2021/06/02 14:27:07;;;;;;;16.50;4.10;;;28.00;68.70;;;;;;5109284;28;20393;-83
2021/06/02 14:29:35;;;;;;;3.75;2.75;;;27.80;69.00;;;;;;5109484;28;20374;-87
2021/06/02 14:32:05;;;;;;;10.98;3.25;;;27.60;68.80;;;;;;5088833;28;20371;-87
2021/06/02 14:34:31;;;;;;;138.98;13.02;;;27.30;70.00;;;;;;5092744;28;20382;-87
2021/06/02 14:36:56;;;;;;;3.97;3.00;;;27.10;69.70;;;;;;5110555;28;20509;-85
2021/06/02 14:39:22;;;;;;;5.45;3.05;;;26.90;69.20;;;;;;5110012;28;20428;-85
2021/06/02 14:41:48;;;;;;;3.70;2.45;;;27.00;69.20;;;;;;5090400;28;20435;-84